createdAt,value
2022-11-16T00:02:39.366Z,15.73
2022-11-16T00:05:41.732Z,16.48
2022-11-16T00:09:06.134Z,12.77
2022-11-16T00:12:11.268Z,15.27
2022-11-16T00:15:13.559Z,15.15
2022-11-16T00:18:17.203Z,10.48
2022-11-16T00:21:19.460Z,14.63
2022-11-16T00:24:23.330Z,16.35
2022-11-16T00:27:26.983Z,15.52
2022-11-16T00:30:29.211Z,15.13
2022-11-16T00:33:33.830Z,15.52
2022-11-16T00:36:36.101Z,16.48
2022-11-16T00:39:38.424Z,17.65
2022-11-16T00:42:42.000Z,16.50
2022-11-16T00:45:44.416Z,19.27
2022-11-16T00:48:46.777Z,16.98
2022-11-16T00:51:49.132Z,21.45
2022-11-16T00:54:51.498Z,20.08
2022-11-16T00:57:55.272Z,19.70
2022-11-16T01:01:04.533Z,20.33
2022-11-16T01:04:06.896Z,20.08
2022-11-16T01:07:09.265Z,22.63
2022-11-16T01:10:13.546Z,20.52
2022-11-16T01:13:19.235Z,20.42
2022-11-16T01:16:22.726Z,26.02
2022-11-16T01:19:25.030Z,22.20
2022-11-16T01:22:27.347Z,23.08
2022-11-16T01:25:29.704Z,27.65
2022-11-16T01:28:54.974Z,23.00
2022-11-16T01:31:57.675Z,25.08
2022-11-16T01:34:59.909Z,17.27
2022-11-16T01:38:05.487Z,21.42
2022-11-16T01:41:11.414Z,21.13
2022-11-16T01:44:51.518Z,21.92
2022-11-16T01:47:56.200Z,18.30
2022-11-16T01:51:03.057Z,31.05
2022-11-16T01:54:07.964Z,26.50
2022-11-16T01:57:15.622Z,24.67
2022-11-16T02:00:26.421Z,25.40
2022-11-16T02:03:47.197Z,22.10
2022-11-16T02:06:58.049Z,24.65
2022-11-16T02:10:11.115Z,23.92
2022-11-16T02:13:21.049Z,23.98
2022-11-16T02:16:31.874Z,23.45
2022-11-16T02:19:51.467Z,24.08
2022-11-16T02:23:07.810Z,26.27
2022-11-16T02:26:22.042Z,29.73
2022-11-16T02:29:29.197Z,30.67
2022-11-16T02:32:34.971Z,31.30
2022-11-16T02:35:40.385Z,35.83
2022-11-16T02:38:48.103Z,25.80
2022-11-16T02:41:51.022Z,26.83
2022-11-16T02:44:55.959Z,26.88
2022-11-16T02:48:01.620Z,29.33
2022-11-16T02:51:06.450Z,32.72
2022-11-16T02:54:12.884Z,26.17
2022-11-16T02:57:38.513Z,28.52
2022-11-16T03:00:46.947Z,29.67
2022-11-16T03:03:55.051Z,27.92
2022-11-16T03:06:58.737Z,27.23
2022-11-16T03:10:01.617Z,30.38
2022-11-16T03:13:06.110Z,31.08
2022-11-16T03:16:14.278Z,26.17
2022-11-16T03:19:20.982Z,27.52
2022-11-16T03:22:26.824Z,26.35
2022-11-16T03:25:31.381Z,27.58
2022-11-16T03:28:38.566Z,21.55
2022-11-16T03:31:46.251Z,26.73
2022-11-16T03:34:57.906Z,24.27
2022-11-16T03:38:03.300Z,25.05
2022-11-16T03:41:07.712Z,23.30
2022-11-16T03:44:12.418Z,19.60
2022-11-16T03:47:16.633Z,20.15
2022-11-16T03:50:18.994Z,23.00
2022-11-16T03:53:21.407Z,21.60
2022-11-16T03:56:23.828Z,16.42
2022-11-16T03:59:26.330Z,15.95
2022-11-16T04:02:30.738Z,13.55
2022-11-16T04:05:52.908Z,20.17
2022-11-16T04:09:13.940Z,16.27
2022-11-16T04:12:34.724Z,11.00
2022-11-16T04:15:55.400Z,18.00
2022-11-16T04:19:18.174Z,17.47
2022-11-16T04:22:40.680Z,14.15
2022-11-16T04:25:44.765Z,11.82
2022-11-16T04:28:51.264Z,18.02
2022-11-16T04:32:12.709Z,17.52
2022-11-16T04:35:35.304Z,10.77
2022-11-16T04:38:38.726Z,6.55
2022-11-16T04:41:59.661Z,7.88
2022-11-16T04:45:24.303Z,5.78
2022-11-16T04:48:28.479Z,4.00
2022-11-16T04:51:33.342Z,4.78
2022-11-16T04:54:36.231Z,4.45
2022-11-16T04:57:38.804Z,6.10
2022-11-16T05:00:41.331Z,5.35
2022-11-16T05:03:45.085Z,7.15
2022-11-16T05:06:49.763Z,4.75
2022-11-16T05:09:52.318Z,7.13
2022-11-16T05:12:54.904Z,4.10
2022-11-16T05:15:58.609Z,5.70
2022-11-16T05:19:20.280Z,8.95
2022-11-16T05:25:32.504Z,9.48
2022-11-16T05:28:39.710Z,6.50
2022-11-16T05:31:43.037Z,8.07
2022-11-16T05:34:45.636Z,6.70
2022-11-16T05:37:49.515Z,10.02
2022-11-16T05:40:51.869Z,6.80
2022-11-16T05:43:54.418Z,10.07
2022-11-16T05:46:57.498Z,6.65
2022-11-16T05:49:59.879Z,9.00
2022-11-16T05:53:07.999Z,7.63
2022-11-16T05:56:11.174Z,8.10
2022-11-16T05:59:17.323Z,7.75
2022-11-16T06:02:20.757Z,6.15
2022-11-16T06:05:24.136Z,9.73
2022-11-16T06:08:28.364Z,5.90
2022-11-16T06:11:35.991Z,8.32
2022-11-16T06:14:39.728Z,8.50
2022-11-16T06:17:42.079Z,10.82
2022-11-16T06:20:45.811Z,5.60
2022-11-16T06:23:49.493Z,6.78
2022-11-16T06:26:52.209Z,7.40
2022-11-16T06:29:54.688Z,6.85
2022-11-16T06:32:57.391Z,6.38
2022-11-16T06:36:01.158Z,5.93
2022-11-16T06:39:05.106Z,10.95
2022-11-16T06:42:11.301Z,7.55
2022-11-16T06:45:14.578Z,9.00
2022-11-16T06:48:21.922Z,7.10
2022-11-16T06:51:24.576Z,7.90
2022-11-16T06:54:28.384Z,7.95
2022-11-16T06:57:30.836Z,6.28
2022-11-16T07:00:33.306Z,5.28
2022-11-16T07:03:36.002Z,7.05
2022-11-16T07:06:40.216Z,10.95
2022-11-16T07:09:45.608Z,18.80
2022-11-16T07:12:49.692Z,13.60
2022-11-16T07:15:54.593Z,21.92
2022-11-16T07:18:59.111Z,10.60
2022-11-16T07:22:05.517Z,7.47
2022-11-16T07:25:09.989Z,13.10
2022-11-16T07:28:12.311Z,7.13
2022-11-16T07:31:15.614Z,6.78
2022-11-16T07:35:15.566Z,9.77
2022-11-16T07:39:43.807Z,7.22
2022-11-16T07:44:09.593Z,3.67
2022-11-16T07:48:36.768Z,8.18
2022-11-16T07:51:59.154Z,19.02
2022-11-16T07:55:31.412Z,7.57
2022-11-16T07:58:35.849Z,5.82
2022-11-16T08:01:39.511Z,10.27
2022-11-16T08:04:44.262Z,36.13
2022-11-16T08:07:48.313Z,7.43
2022-11-16T08:10:51.476Z,15.75
2022-11-16T08:13:55.554Z,47.05
2022-11-16T08:16:58.197Z,12.35
2022-11-16T08:20:00.635Z,8.52
2022-11-16T08:23:06.266Z,9.57
2022-11-16T08:26:14.530Z,9.30
2022-11-16T08:29:21.360Z,8.45
2022-11-16T08:32:29.618Z,10.10
2022-11-16T08:35:32.123Z,10.75
2022-11-16T08:38:36.399Z,10.38
2022-11-16T08:41:40.007Z,12.43
2022-11-16T08:44:43.866Z,7.32
2022-11-16T08:47:49.304Z,9.38
2022-11-16T08:54:13.356Z,9.18
2022-11-16T08:57:17.270Z,6.45
2022-11-16T09:00:24.322Z,12.05
2022-11-16T09:03:29.572Z,9.10
2022-11-16T09:06:31.910Z,15.90
2022-11-16T09:09:36.224Z,9.93
2022-11-16T09:12:39.011Z,11.18
2022-11-16T09:15:41.424Z,7.90
2022-11-16T09:18:44.296Z,11.90
2022-11-16T09:21:46.824Z,14.88
2022-11-16T09:24:52.213Z,12.07
2022-11-16T09:27:55.601Z,8.63
2022-11-16T09:31:00.808Z,6.10
2022-11-16T09:34:03.799Z,8.50
2022-11-16T09:37:06.229Z,7.57
2022-11-16T09:40:12.436Z,11.38
2022-11-16T09:43:22.849Z,5.85
2022-11-16T09:46:29.512Z,5.40
2022-11-16T09:49:34.679Z,3.90
2022-11-16T09:56:04.415Z,3.50
2022-11-16T09:59:18.016Z,7.85
2022-11-16T10:02:26.422Z,5.38
2022-11-16T10:05:33.121Z,4.13
2022-11-16T10:08:43.153Z,7.20
2022-11-16T10:12:08.497Z,8.15
2022-11-16T10:15:35.225Z,4.15
2022-11-16T10:18:55.400Z,3.55
2022-11-16T10:22:02.112Z,10.93
2022-11-16T10:25:15.122Z,8.13
2022-11-16T10:28:30.447Z,7.13
2022-11-16T10:32:02.626Z,7.80
2022-11-16T10:35:09.396Z,6.60
2022-11-16T10:38:14.759Z,6.85
2022-11-16T10:41:19.347Z,6.90
2022-11-16T10:44:30.378Z,4.63
2022-11-16T10:47:36.810Z,4.88
2022-11-16T10:50:41.192Z,7.47
2022-11-16T10:53:44.279Z,5.82
2022-11-16T10:56:48.710Z,6.55
2022-11-16T10:59:55.345Z,8.05
2022-11-16T11:02:57.614Z,4.07
2022-11-16T11:06:00.147Z,4.57
2022-11-16T11:09:15.138Z,5.47
2022-11-16T11:12:37.932Z,8.10
2022-11-16T11:15:42.813Z,9.50
2022-11-16T11:18:45.321Z,11.02
2022-11-16T11:21:50.376Z,10.10
2022-11-16T11:24:53.043Z,4.88
2022-11-16T11:28:06.657Z,6.40
2022-11-16T11:31:17.413Z,5.68
2022-11-16T11:34:25.884Z,6.03
2022-11-16T11:37:36.204Z,6.63
2022-11-16T11:40:38.945Z,5.47
2022-11-16T11:43:42.146Z,5.97
2022-11-16T11:50:17.451Z,5.30
2022-11-16T11:53:33.439Z,4.93
2022-11-16T11:56:35.962Z,3.92
2022-11-16T11:59:38.258Z,5.30
2022-11-16T12:03:07.942Z,3.78
2022-11-16T12:06:17.735Z,3.00
2022-11-16T12:09:32.451Z,4.28
2022-11-16T12:12:45.518Z,5.88
2022-11-16T12:15:57.760Z,6.45
2022-11-16T12:19:34.758Z,3.78
2022-11-16T12:22:50.630Z,4.18
2022-11-16T12:26:03.252Z,3.42
2022-11-16T12:29:19.161Z,4.88
2022-11-16T12:32:50.923Z,3.35
2022-11-16T12:36:01.154Z,4.63
2022-11-16T12:39:14.832Z,2.85
2022-11-16T12:42:42.019Z,1.98
2022-11-16T12:45:54.045Z,5.75
2022-11-16T12:49:21.213Z,5.45
2022-11-16T12:52:45.373Z,4.40
2022-11-16T12:55:54.883Z,6.72
2022-11-16T12:59:21.912Z,4.80
2022-11-16T13:02:30.361Z,4.03
2022-11-16T13:05:54.751Z,2.83
2022-11-16T13:09:06.900Z,2.28
2022-11-16T13:12:16.950Z,3.28
2022-11-16T13:15:23.898Z,4.75
2022-11-16T13:18:28.743Z,1.05
2022-11-16T13:21:45.862Z,3.10
2022-11-16T13:24:52.029Z,5.70
2022-11-16T13:27:58.467Z,4.97
2022-11-16T13:31:04.268Z,3.10
2022-11-16T13:34:08.158Z,1.85
2022-11-16T13:37:43.514Z,3.63
2022-11-16T13:40:47.602Z,3.50
2022-11-16T13:43:50.128Z,2.95
2022-11-16T13:46:56.114Z,4.28
2022-11-16T13:50:01.470Z,1.45
2022-11-16T13:54:10.781Z,5.10
2022-11-16T13:56:47.333Z,2.30
2022-11-16T14:03:26.641Z,3.40
2022-11-16T14:06:57.195Z,4.72
2022-11-16T14:10:00.258Z,5.88
2022-11-16T14:13:04.698Z,4.22
2022-11-16T14:16:46.380Z,4.72
2022-11-16T14:19:55.050Z,2.92
2022-11-16T14:23:12.699Z,2.03
2022-11-16T14:26:21.046Z,2.85
2022-11-16T14:29:36.582Z,1.63
2022-11-16T14:32:45.236Z,8.18
2022-11-16T14:35:51.051Z,4.15
2022-11-16T14:38:53.258Z,3.60
2022-11-16T14:41:57.309Z,4.97
2022-11-16T14:45:05.013Z,2.45
2022-11-16T14:48:17.092Z,6.75
2022-11-16T14:51:21.883Z,4.45
2022-11-16T14:54:28.899Z,3.60
2022-11-16T14:57:31.404Z,4.40
2022-11-16T15:00:35.541Z,5.30
2022-11-16T15:03:41.473Z,3.53
2022-11-16T15:06:46.433Z,1.80
2022-11-16T15:09:50.822Z,2.95
2022-11-16T15:12:54.318Z,7.65
2022-11-16T15:16:14.350Z,3.80
2022-11-16T15:19:16.719Z,6.68
2022-11-16T15:22:19.406Z,3.97
2022-11-16T15:25:27.916Z,1.30
2022-11-16T15:28:31.822Z,4.45
2022-11-16T15:31:36.606Z,2.22
2022-11-16T15:34:39.503Z,4.65
2022-11-16T15:37:42.013Z,5.65
2022-11-16T15:40:49.472Z,5.00
2022-11-16T15:44:12.677Z,3.17
2022-11-16T15:47:17.192Z,6.70
2022-11-16T15:50:23.153Z,1.63
2022-11-16T15:53:37.603Z,4.88
2022-11-16T15:56:40.555Z,2.40
2022-11-16T15:59:48.138Z,4.28
2022-11-16T16:02:51.999Z,4.20
2022-11-16T16:05:55.139Z,6.03
2022-11-16T16:09:03.980Z,7.30
2022-11-16T16:12:17.516Z,3.33
2022-11-16T16:15:22.101Z,5.40
2022-11-16T16:18:40.589Z,3.80
2022-11-16T16:21:44.483Z,6.50
2022-11-16T16:24:46.961Z,4.55
2022-11-16T16:27:49.458Z,9.88
2022-11-16T16:30:53.487Z,2.25
2022-11-16T16:33:59.439Z,7.32
2022-11-16T16:37:02.113Z,6.35
2022-11-16T16:40:06.257Z,3.10
2022-11-16T16:43:09.481Z,9.90
2022-11-16T16:46:13.152Z,4.13
2022-11-16T16:49:17.067Z,7.45
2022-11-16T16:52:19.517Z,9.15
2022-11-16T16:55:21.786Z,8.55
2022-11-16T16:58:24.042Z,9.48
2022-11-16T17:01:26.859Z,2.90
2022-11-16T17:04:32.279Z,10.02
2022-11-16T17:07:34.872Z,4.72
2022-11-16T17:10:37.417Z,3.53
2022-11-16T17:13:39.704Z,4.47
2022-11-16T17:16:42.185Z,5.15
2022-11-16T17:19:46.265Z,4.75
2022-11-16T17:22:48.599Z,4.85
2022-11-16T17:25:50.972Z,4.82
2022-11-16T17:28:55.459Z,4.60
2022-11-16T17:31:57.750Z,2.58
2022-11-16T17:35:01.675Z,4.90
2022-11-16T17:38:03.941Z,3.75
2022-11-16T17:41:08.230Z,4.57
2022-11-16T17:44:10.544Z,6.32
2022-11-16T17:47:12.939Z,3.90
2022-11-16T17:50:17.028Z,2.05
2022-11-16T17:53:19.435Z,3.40
2022-11-16T17:56:23.029Z,4.28
2022-11-16T17:59:29.560Z,5.60
2022-11-16T18:02:32.490Z,2.47
2022-11-16T18:05:36.242Z,4.63
2022-11-16T18:08:38.846Z,2.70
2022-11-16T18:11:42.045Z,5.93
2022-11-16T18:14:59.935Z,2.55
2022-11-16T18:18:09.579Z,8.75
2022-11-16T18:21:20.023Z,4.60
2022-11-16T18:24:23.039Z,6.30
2022-11-16T18:27:25.439Z,13.32
2022-11-16T18:30:27.689Z,6.15
2022-11-16T18:33:31.182Z,5.95
2022-11-16T18:36:38.050Z,8.15
2022-11-16T18:39:40.350Z,3.13
2022-11-16T18:42:42.689Z,5.07
2022-11-16T18:45:45.012Z,8.25
2022-11-16T18:48:47.701Z,3.53
2022-11-16T18:51:51.536Z,4.32
2022-11-16T18:54:53.960Z,5.18
2022-11-16T18:57:56.777Z,4.75
2022-11-16T19:01:01.720Z,3.05
2022-11-16T19:04:04.716Z,5.72
2022-11-16T19:07:08.368Z,4.32
2022-11-16T19:10:11.394Z,3.20
2022-11-16T19:13:14.132Z,4.65
2022-11-16T19:16:16.520Z,5.05
2022-11-16T19:19:19.030Z,7.43
2022-11-16T19:22:22.975Z,10.23
2022-11-16T19:25:25.417Z,3.03
2022-11-16T19:28:28.106Z,3.88
2022-11-16T19:31:55.990Z,5.07
2022-11-16T19:35:00.288Z,6.35
2022-11-16T19:38:31.650Z,6.28
2022-11-16T19:42:35.100Z,2.55
2022-11-16T19:46:24.287Z,4.32
2022-11-16T19:49:41.838Z,5.65
2022-11-16T19:52:50.058Z,8.00
2022-11-16T19:56:04.020Z,6.07
2022-11-16T19:59:14.590Z,7.80
2022-11-16T20:02:21.213Z,5.22
2022-11-16T20:05:31.807Z,12.43
2022-11-16T20:09:26.279Z,4.15
2022-11-16T20:17:35.318Z,5.47
2022-11-16T20:25:09.797Z,7.55
2022-11-16T20:28:32.978Z,8.75
2022-11-16T20:31:38.537Z,5.55
2022-11-16T20:34:51.350Z,10.43
2022-11-16T20:42:19.188Z,4.82
2022-11-16T20:45:47.447Z,9.63
2022-11-16T20:52:33.701Z,2.70
2022-11-16T20:55:46.021Z,5.45
2022-11-16T20:59:02.113Z,6.10
2022-11-16T21:02:12.197Z,5.47
2022-11-16T21:05:14.703Z,6.43
2022-11-16T21:08:27.693Z,5.35
2022-11-16T21:11:52.618Z,7.55
2022-11-16T21:14:55.113Z,3.88
2022-11-16T21:17:57.466Z,4.65
2022-11-16T21:21:11.793Z,4.85
2022-11-16T21:24:15.724Z,7.65
2022-11-16T21:27:18.250Z,6.78
2022-11-16T21:30:20.729Z,4.72
2022-11-16T21:33:23.867Z,7.78
2022-11-16T21:52:45.119Z,4.78
2022-11-16T22:23:03.247Z,5.38
2022-11-16T22:28:20.541Z,7.00
2022-11-16T22:38:43.865Z,7.72
2022-11-16T22:42:53.007Z,4.40
2022-11-16T22:46:29.476Z,10.73
2022-11-16T22:49:44.857Z,9.57
2022-11-16T22:53:01.637Z,7.57
2022-11-16T22:56:20.138Z,6.43
2022-11-16T22:59:50.664Z,4.70
2022-11-16T23:03:12.545Z,8.45
2022-11-16T23:06:34.888Z,4.68
2022-11-16T23:09:51.703Z,4.60
2022-11-16T23:13:47.131Z,7.05
2022-11-16T23:17:13.149Z,3.83
2022-11-16T23:20:48.510Z,6.15
2022-11-16T23:28:31.655Z,4.50
2022-11-16T23:31:44.941Z,7.53
2022-11-16T23:35:15.376Z,8.93
2022-11-16T23:38:36.990Z,2.22
2022-11-16T23:42:04.261Z,4.90
2022-11-16T23:45:21.800Z,3.35
2022-11-16T23:48:41.443Z,4.20
2022-11-16T23:51:54.117Z,4.97
2022-11-16T23:55:24.606Z,6.97
2022-11-16T23:58:44.352Z,4.50
